sensor_id;sensor_type;location;lat;lon;timestamp;P1;durP1;ratioP1;P2;durP2;ratioP2
20709;SDS011;10516;51.518;9.864;2023-08-17T00:01:57;15.50;;;13.48;;
20709;SDS011;10516;51.518;9.864;2023-08-17T00:04:22;22.38;;;13.00;;
20709;SDS011;10516;51.518;9.864;2023-08-17T00:06:47;17.23;;;11.63;;
20709;SDS011;10516;51.518;9.864;2023-08-17T00:09:13;21.23;;;12.90;;
20709;SDS011;10516;51.518;9.864;2023-08-17T00:11:38;14.75;;;10.85;;
20709;SDS011;10516;51.518;9.864;2023-08-17T00:14:04;16.20;;;11.68;;
20709;SDS011;10516;51.518;9.864;2023-08-17T00:16:30;16.00;;;12.63;;
20709;SDS011;10516;51.518;9.864;2023-08-17T00:18:56;15.43;;;11.75;;
20709;SDS011;10516;51.518;9.864;2023-08-17T00:21:22;14.55;;;11.02;;
20709;SDS011;10516;51.518;9.864;2023-08-17T00:23:47;16.27;;;10.88;;
20709;SDS011;10516;51.518;9.864;2023-08-17T00:26:12;18.55;;;12.18;;
20709;SDS011;10516;51.518;9.864;2023-08-17T00:28:39;17.20;;;11.95;;
20709;SDS011;10516;51.518;9.864;2023-08-17T00:31:05;15.68;;;12.38;;
20709;SDS011;10516;51.518;9.864;2023-08-17T00:33:30;14.15;;;11.27;;
20709;SDS011;10516;51.518;9.864;2023-08-17T00:35:55;16.10;;;12.60;;
20709;SDS011;10516;51.518;9.864;2023-08-17T00:38:21;20.40;;;13.07;;
20709;SDS011;10516;51.518;9.864;2023-08-17T00:40:46;21.83;;;13.30;;
20709;SDS011;10516;51.518;9.864;2023-08-17T00:43:12;18.70;;;13.65;;
20709;SDS011;10516;51.518;9.864;2023-08-17T00:45:37;21.42;;;14.98;;
20709;SDS011;10516;51.518;9.864;2023-08-17T00:48:03;21.10;;;13.57;;
20709;SDS011;10516;51.518;9.864;2023-08-17T00:50:32;12.73;;;9.90;;
20709;SDS011;10516;51.518;9.864;2023-08-17T00:52:59;10.55;;;9.05;;
20709;SDS011;10516;51.518;9.864;2023-08-17T00:55:24;12.18;;;8.43;;
20709;SDS011;10516;51.518;9.864;2023-08-17T00:57:50;9.65;;;6.90;;
20709;SDS011;10516;51.518;9.864;2023-08-17T01:00:18;11.13;;;7.18;;
20709;SDS011;10516;51.518;9.864;2023-08-17T01:02:43;7.45;;;4.55;;
20709;SDS011;10516;51.518;9.864;2023-08-17T01:05:09;7.50;;;4.20;;
20709;SDS011;10516;51.518;9.864;2023-08-17T01:07:35;5.18;;;3.72;;
20709;SDS011;10516;51.518;9.864;2023-08-17T01:10:00;4.95;;;4.43;;
20709;SDS011;10516;51.518;9.864;2023-08-17T01:14:55;8.88;;;4.00;;
20709;SDS011;10516;51.518;9.864;2023-08-17T01:17:22;9.52;;;5.05;;
20709;SDS011;10516;51.518;9.864;2023-08-17T01:19:54;6.53;;;4.45;;
20709;SDS011;10516;51.518;9.864;2023-08-17T01:22:23;7.35;;;4.32;;
20709;SDS011;10516;51.518;9.864;2023-08-17T01:24:54;8.63;;;4.63;;
20709;SDS011;10516;51.518;9.864;2023-08-17T01:27:22;6.75;;;5.10;;
20709;SDS011;10516;51.518;9.864;2023-08-17T01:29:48;5.70;;;4.68;;
20709;SDS011;10516;51.518;9.864;2023-08-17T01:32:34;6.85;;;4.55;;
20709;SDS011;10516;51.518;9.864;2023-08-17T01:35:08;5.57;;;3.42;;
20709;SDS011;10516;51.518;9.864;2023-08-17T01:37:39;6.10;;;3.03;;
20709;SDS011;10516;51.518;9.864;2023-08-17T01:40:07;5.20;;;3.10;;
20709;SDS011;10516;51.518;9.864;2023-08-17T01:42:34;4.07;;;3.72;;
20709;SDS011;10516;51.518;9.864;2023-08-17T01:45:01;4.75;;;3.63;;
20709;SDS011;10516;51.518;9.864;2023-08-17T01:47:27;8.40;;;4.07;;
20709;SDS011;10516;51.518;9.864;2023-08-17T01:49:52;5.47;;;3.60;;
20709;SDS011;10516;51.518;9.864;2023-08-17T01:52:17;4.43;;;3.70;;
20709;SDS011;10516;51.518;9.864;2023-08-17T01:54:43;6.25;;;3.13;;
20709;SDS011;10516;51.518;9.864;2023-08-17T01:57:08;3.85;;;3.10;;
20709;SDS011;10516;51.518;9.864;2023-08-17T01:59:33;8.30;;;3.13;;
20709;SDS011;10516;51.518;9.864;2023-08-17T02:01:59;5.28;;;2.95;;
20709;SDS011;10516;51.518;9.864;2023-08-17T02:04:24;3.13;;;2.50;;
20709;SDS011;10516;51.518;9.864;2023-08-17T02:06:50;4.82;;;3.28;;
20709;SDS011;10516;51.518;9.864;2023-08-17T02:09:15;5.07;;;3.10;;
20709;SDS011;10516;51.518;9.864;2023-08-17T02:11:41;4.55;;;3.10;;
20709;SDS011;10516;51.518;9.864;2023-08-17T02:14:06;2.85;;;2.65;;
20709;SDS011;10516;51.518;9.864;2023-08-17T02:16:31;2.90;;;2.10;;
20709;SDS011;10516;51.518;9.864;2023-08-17T02:18:57;4.20;;;2.53;;
20709;SDS011;10516;51.518;9.864;2023-08-17T02:21:22;2.47;;;2.28;;
20709;SDS011;10516;51.518;9.864;2023-08-17T02:23:48;4.10;;;2.80;;
20709;SDS011;10516;51.518;9.864;2023-08-17T02:26:14;4.03;;;2.38;;
20709;SDS011;10516;51.518;9.864;2023-08-17T02:28:39;4.22;;;2.50;;
20709;SDS011;10516;51.518;9.864;2023-08-17T02:31:04;2.50;;;2.20;;
20709;SDS011;10516;51.518;9.864;2023-08-17T02:33:33;4.13;;;2.28;;
20709;SDS011;10516;51.518;9.864;2023-08-17T02:35:58;2.90;;;1.95;;
20709;SDS011;10516;51.518;9.864;2023-08-17T02:38:24;4.35;;;2.33;;
20709;SDS011;10516;51.518;9.864;2023-08-17T02:40:49;1.95;;;1.85;;
20709;SDS011;10516;51.518;9.864;2023-08-17T02:43:15;2.30;;;1.85;;
20709;SDS011;10516;51.518;9.864;2023-08-17T02:45:41;3.75;;;2.30;;
20709;SDS011;10516;51.518;9.864;2023-08-17T02:48:08;10.05;;;2.47;;
20709;SDS011;10516;51.518;9.864;2023-08-17T02:50:34;3.75;;;2.28;;
20709;SDS011;10516;51.518;9.864;2023-08-17T02:52:59;2.83;;;2.03;;
20709;SDS011;10516;51.518;9.864;2023-08-17T02:55:25;2.63;;;2.42;;
20709;SDS011;10516;51.518;9.864;2023-08-17T02:57:50;3.90;;;2.30;;
20709;SDS011;10516;51.518;9.864;2023-08-17T03:00:15;4.65;;;2.60;;
20709;SDS011;10516;51.518;9.864;2023-08-17T03:02:41;2.97;;;2.20;;
20709;SDS011;10516;51.518;9.864;2023-08-17T03:05:06;2.83;;;1.83;;
20709;SDS011;10516;51.518;9.864;2023-08-17T03:07:32;2.55;;;2.03;;
20709;SDS011;10516;51.518;9.864;2023-08-17T03:09:57;4.13;;;2.15;;
20709;SDS011;10516;51.518;9.864;2023-08-17T03:12:22;3.13;;;2.78;;
20709;SDS011;10516;51.518;9.864;2023-08-17T03:14:48;5.00;;;3.05;;
20709;SDS011;10516;51.518;9.864;2023-08-17T03:17:13;5.05;;;2.97;;
20709;SDS011;10516;51.518;9.864;2023-08-17T03:19:38;3.25;;;2.13;;
20709;SDS011;10516;51.518;9.864;2023-08-17T03:22:04;8.80;;;3.83;;
20709;SDS011;10516;51.518;9.864;2023-08-17T03:24:29;3.28;;;2.90;;
20709;SDS011;10516;51.518;9.864;2023-08-17T03:26:54;4.10;;;2.15;;
20709;SDS011;10516;51.518;9.864;2023-08-17T03:29:20;2.45;;;2.25;;
20709;SDS011;10516;51.518;9.864;2023-08-17T03:31:45;5.25;;;2.08;;
20709;SDS011;10516;51.518;9.864;2023-08-17T03:34:11;8.35;;;3.35;;
20709;SDS011;10516;51.518;9.864;2023-08-17T03:36:36;4.88;;;3.42;;
20709;SDS011;10516;51.518;9.864;2023-08-17T03:39:01;2.40;;;2.03;;
20709;SDS011;10516;51.518;9.864;2023-08-17T03:41:27;2.72;;;2.33;;
20709;SDS011;10516;51.518;9.864;2023-08-17T03:43:52;2.78;;;2.33;;
20709;SDS011;10516;51.518;9.864;2023-08-17T03:46:18;4.32;;;2.35;;
20709;SDS011;10516;51.518;9.864;2023-08-17T03:48:43;3.08;;;2.67;;
20709;SDS011;10516;51.518;9.864;2023-08-17T03:51:08;2.75;;;2.13;;
20709;SDS011;10516;51.518;9.864;2023-08-17T03:53:34;2.13;;;1.92;;
20709;SDS011;10516;51.518;9.864;2023-08-17T03:55:59;7.47;;;2.88;;
20709;SDS011;10516;51.518;9.864;2023-08-17T03:58:24;6.40;;;2.97;;
20709;SDS011;10516;51.518;9.864;2023-08-17T04:00:52;3.78;;;3.38;;
20709;SDS011;10516;51.518;9.864;2023-08-17T04:03:18;5.75;;;4.15;;
20709;SDS011;10516;51.518;9.864;2023-08-17T04:05:44;2.95;;;2.40;;
20709;SDS011;10516;51.518;9.864;2023-08-17T04:08:10;5.30;;;3.38;;
20709;SDS011;10516;51.518;9.864;2023-08-17T04:10:35;7.82;;;3.25;;
20709;SDS011;10516;51.518;9.864;2023-08-17T04:13:01;5.35;;;3.03;;
20709;SDS011;10516;51.518;9.864;2023-08-17T04:15:26;4.18;;;3.60;;
20709;SDS011;10516;51.518;9.864;2023-08-17T04:17:51;4.38;;;3.53;;
20709;SDS011;10516;51.518;9.864;2023-08-17T04:20:17;3.75;;;3.28;;
20709;SDS011;10516;51.518;9.864;2023-08-17T04:22:43;10.77;;;6.80;;
20709;SDS011;10516;51.518;9.864;2023-08-17T04:25:09;7.95;;;6.47;;
20709;SDS011;10516;51.518;9.864;2023-08-17T04:27:34;10.00;;;6.05;;
20709;SDS011;10516;51.518;9.864;2023-08-17T04:30:00;8.38;;;5.47;;
20709;SDS011;10516;51.518;9.864;2023-08-17T04:32:26;8.52;;;6.90;;
20709;SDS011;10516;51.518;9.864;2023-08-17T04:34:51;12.52;;;7.60;;
20709;SDS011;10516;51.518;9.864;2023-08-17T04:37:16;14.82;;;7.65;;
20709;SDS011;10516;51.518;9.864;2023-08-17T04:39:42;11.40;;;8.45;;
20709;SDS011;10516;51.518;9.864;2023-08-17T04:42:08;13.35;;;10.77;;
20709;SDS011;10516;51.518;9.864;2023-08-17T04:44:34;12.05;;;10.13;;
20709;SDS011;10516;51.518;9.864;2023-08-17T04:46:59;5.45;;;4.40;;
20709;SDS011;10516;51.518;9.864;2023-08-17T04:49:25;11.32;;;9.50;;
20709;SDS011;10516;51.518;9.864;2023-08-17T04:51:51;17.85;;;11.35;;
20709;SDS011;10516;51.518;9.864;2023-08-17T04:54:17;15.35;;;11.55;;
20709;SDS011;10516;51.518;9.864;2023-08-17T04:56:42;13.63;;;11.68;;
20709;SDS011;10516;51.518;9.864;2023-08-17T04:59:08;10.93;;;9.85;;
20709;SDS011;10516;51.518;9.864;2023-08-17T05:01:33;13.55;;;10.27;;
20709;SDS011;10516;51.518;9.864;2023-08-17T05:03:59;12.68;;;10.15;;
20709;SDS011;10516;51.518;9.864;2023-08-17T05:06:24;16.13;;;12.07;;
20709;SDS011;10516;51.518;9.864;2023-08-17T05:08:52;16.77;;;12.15;;
20709;SDS011;10516;51.518;9.864;2023-08-17T05:11:18;16.40;;;12.25;;
20709;SDS011;10516;51.518;9.864;2023-08-17T05:13:43;15.40;;;12.52;;
20709;SDS011;10516;51.518;9.864;2023-08-17T05:16:08;17.60;;;12.20;;
20709;SDS011;10516;51.518;9.864;2023-08-17T05:18:34;16.25;;;12.55;;
20709;SDS011;10516;51.518;9.864;2023-08-17T05:20:59;18.08;;;11.98;;
20709;SDS011;10516;51.518;9.864;2023-08-17T05:23:25;16.60;;;10.65;;
20709;SDS011;10516;51.518;9.864;2023-08-17T05:25:51;14.95;;;11.07;;
20709;SDS011;10516;51.518;9.864;2023-08-17T05:28:16;8.57;;;6.35;;
20709;SDS011;10516;51.518;9.864;2023-08-17T05:30:41;10.45;;;9.38;;
20709;SDS011;10516;51.518;9.864;2023-08-17T05:33:07;11.32;;;9.95;;
20709;SDS011;10516;51.518;9.864;2023-08-17T05:35:32;12.32;;;7.07;;
20709;SDS011;10516;51.518;9.864;2023-08-17T05:37:57;16.35;;;10.85;;
20709;SDS011;10516;51.518;9.864;2023-08-17T05:40:23;19.10;;;10.93;;
20709;SDS011;10516;51.518;9.864;2023-08-17T05:42:48;14.43;;;10.90;;
20709;SDS011;10516;51.518;9.864;2023-08-17T05:45:13;17.50;;;11.43;;
20709;SDS011;10516;51.518;9.864;2023-08-17T05:47:39;17.42;;;11.38;;
20709;SDS011;10516;51.518;9.864;2023-08-17T05:50:04;13.90;;;11.65;;
20709;SDS011;10516;51.518;9.864;2023-08-17T05:52:31;10.80;;;6.22;;
20709;SDS011;10516;51.518;9.864;2023-08-17T05:54:56;10.68;;;7.95;;
20709;SDS011;10516;51.518;9.864;2023-08-17T05:57:22;7.25;;;6.00;;
20709;SDS011;10516;51.518;9.864;2023-08-17T05:59:47;6.63;;;3.58;;
20709;SDS011;10516;51.518;9.864;2023-08-17T06:02:13;3.97;;;3.13;;
20709;SDS011;10516;51.518;9.864;2023-08-17T06:04:38;5.32;;;3.85;;
20709;SDS011;10516;51.518;9.864;2023-08-17T06:07:03;3.05;;;2.40;;
20709;SDS011;10516;51.518;9.864;2023-08-17T06:09:29;2.65;;;2.10;;
20709;SDS011;10516;51.518;9.864;2023-08-17T06:11:54;2.47;;;2.20;;
20709;SDS011;10516;51.518;9.864;2023-08-17T06:14:19;3.30;;;2.05;;
20709;SDS011;10516;51.518;9.864;2023-08-17T06:16:45;6.40;;;2.38;;
20709;SDS011;10516;51.518;9.864;2023-08-17T06:19:10;2.85;;;1.80;;
20709;SDS011;10516;51.518;9.864;2023-08-17T06:21:35;2.33;;;2.00;;
20709;SDS011;10516;51.518;9.864;2023-08-17T06:24:01;4.68;;;1.65;;
20709;SDS011;10516;51.518;9.864;2023-08-17T06:26:26;2.55;;;1.60;;
20709;SDS011;10516;51.518;9.864;2023-08-17T06:28:52;1.70;;;1.60;;
20709;SDS011;10516;51.518;9.864;2023-08-17T06:31:17;3.45;;;1.80;;
20709;SDS011;10516;51.518;9.864;2023-08-17T06:33:42;3.17;;;1.48;;
20709;SDS011;10516;51.518;9.864;2023-08-17T06:36:08;1.83;;;1.38;;
20709;SDS011;10516;51.518;9.864;2023-08-17T06:38:33;4.15;;;1.65;;
20709;SDS011;10516;51.518;9.864;2023-08-17T06:40:59;4.13;;;2.25;;
20709;SDS011;10516;51.518;9.864;2023-08-17T06:43:24;2.47;;;1.50;;
20709;SDS011;10516;51.518;9.864;2023-08-17T06:45:49;2.03;;;1.23;;
20709;SDS011;10516;51.518;9.864;2023-08-17T06:48:15;2.85;;;1.50;;
20709;SDS011;10516;51.518;9.864;2023-08-17T06:50:40;6.30;;;1.48;;
20709;SDS011;10516;51.518;9.864;2023-08-17T06:53:06;1.55;;;1.45;;
20709;SDS011;10516;51.518;9.864;2023-08-17T06:55:31;4.10;;;1.77;;
20709;SDS011;10516;51.518;9.864;2023-08-17T06:57:57;1.67;;;1.58;;
20709;SDS011;10516;51.518;9.864;2023-08-17T07:00:22;3.58;;;1.17;;
20709;SDS011;10516;51.518;9.864;2023-08-17T07:02:48;1.98;;;1.63;;
20709;SDS011;10516;51.518;9.864;2023-08-17T07:05:14;2.95;;;1.50;;
20709;SDS011;10516;51.518;9.864;2023-08-17T07:07:40;1.30;;;1.10;;
20709;SDS011;10516;51.518;9.864;2023-08-17T07:10:05;1.92;;;1.30;;
20709;SDS011;10516;51.518;9.864;2023-08-17T07:12:32;1.50;;;1.00;;
20709;SDS011;10516;51.518;9.864;2023-08-17T07:14:58;1.55;;;1.13;;
20709;SDS011;10516;51.518;9.864;2023-08-17T07:17:23;2.08;;;1.80;;
20709;SDS011;10516;51.518;9.864;2023-08-17T07:19:48;1.98;;;1.27;;
20709;SDS011;10516;51.518;9.864;2023-08-17T07:22:14;5.10;;;1.52;;
20709;SDS011;10516;51.518;9.864;2023-08-17T07:24:41;1.42;;;1.17;;
20709;SDS011;10516;51.518;9.864;2023-08-17T07:27:06;2.67;;;1.27;;
20709;SDS011;10516;51.518;9.864;2023-08-17T07:29:32;2.42;;;1.63;;
20709;SDS011;10516;51.518;9.864;2023-08-17T07:31:57;1.40;;;1.30;;
20709;SDS011;10516;51.518;9.864;2023-08-17T07:34:26;1.73;;;1.20;;
20709;SDS011;10516;51.518;9.864;2023-08-17T07:36:51;5.38;;;1.50;;
20709;SDS011;10516;51.518;9.864;2023-08-17T07:39:17;1.95;;;1.25;;
20709;SDS011;10516;51.518;9.864;2023-08-17T07:41:43;1.23;;;1.13;;
20709;SDS011;10516;51.518;9.864;2023-08-17T07:44:08;1.38;;;1.27;;
20709;SDS011;10516;51.518;9.864;2023-08-17T07:46:34;4.07;;;1.58;;
20709;SDS011;10516;51.518;9.864;2023-08-17T07:48:59;1.23;;;1.00;;
20709;SDS011;10516;51.518;9.864;2023-08-17T07:51:25;1.85;;;1.55;;
20709;SDS011;10516;51.518;9.864;2023-08-17T07:53:50;1.77;;;1.40;;
20709;SDS011;10516;51.518;9.864;2023-08-17T07:56:15;1.50;;;1.40;;
20709;SDS011;10516;51.518;9.864;2023-08-17T07:58:41;1.30;;;1.02;;
20709;SDS011;10516;51.518;9.864;2023-08-17T08:01:06;0.98;;;0.98;;
20709;SDS011;10516;51.518;9.864;2023-08-17T08:03:31;3.70;;;1.40;;
20709;SDS011;10516;51.518;9.864;2023-08-17T08:05:57;1.70;;;1.02;;
20709;SDS011;10516;51.518;9.864;2023-08-17T08:08:22;3.63;;;1.70;;
20709;SDS011;10516;51.518;9.864;2023-08-17T08:10:48;1.35;;;1.25;;
20709;SDS011;10516;51.518;9.864;2023-08-17T08:13:13;1.20;;;1.10;;
20709;SDS011;10516;51.518;9.864;2023-08-17T08:15:39;1.95;;;1.02;;
20709;SDS011;10516;51.518;9.864;2023-08-17T08:18:04;3.47;;;1.55;;
20709;SDS011;10516;51.518;9.864;2023-08-17T08:20:30;4.72;;;1.13;;
20709;SDS011;10516;51.518;9.864;2023-08-17T08:22:55;1.02;;;1.02;;
20709;SDS011;10516;51.518;9.864;2023-08-17T08:25:21;2.20;;;1.35;;
20709;SDS011;10516;51.518;9.864;2023-08-17T08:27:46;1.10;;;1.00;;
20709;SDS011;10516;51.518;9.864;2023-08-17T08:30:11;2.28;;;1.65;;
20709;SDS011;10516;51.518;9.864;2023-08-17T08:32:37;3.60;;;1.52;;
20709;SDS011;10516;51.518;9.864;2023-08-17T08:35:02;1.02;;;0.93;;
20709;SDS011;10516;51.518;9.864;2023-08-17T08:37:28;1.27;;;1.17;;
20709;SDS011;10516;51.518;9.864;2023-08-17T08:39:54;1.85;;;1.27;;
20709;SDS011;10516;51.518;9.864;2023-08-17T08:42:20;1.63;;;1.50;;
20709;SDS011;10516;51.518;9.864;2023-08-17T08:44:46;1.33;;;1.17;;
20709;SDS011;10516;51.518;9.864;2023-08-17T08:47:13;3.20;;;1.20;;
20709;SDS011;10516;51.518;9.864;2023-08-17T08:49:39;1.95;;;1.27;;
20709;SDS011;10516;51.518;9.864;2023-08-17T08:52:08;3.55;;;1.67;;
20709;SDS011;10516;51.518;9.864;2023-08-17T08:54:41;10.15;;;1.85;;
20709;SDS011;10516;51.518;9.864;2023-08-17T08:57:11;2.45;;;1.30;;
20709;SDS011;10516;51.518;9.864;2023-08-17T08:59:39;3.92;;;1.73;;
20709;SDS011;10516;51.518;9.864;2023-08-17T09:02:10;1.50;;;1.40;;
20709;SDS011;10516;51.518;9.864;2023-08-17T09:04:41;6.95;;;1.80;;
20709;SDS011;10516;51.518;9.864;2023-08-17T09:07:09;6.65;;;2.13;;
20709;SDS011;10516;51.518;9.864;2023-08-17T09:09:36;12.48;;;3.03;;
20709;SDS011;10516;51.518;9.864;2023-08-17T09:12:03;18.65;;;3.08;;
20709;SDS011;10516;51.518;9.864;2023-08-17T09:14:29;8.68;;;2.05;;
20709;SDS011;10516;51.518;9.864;2023-08-17T09:16:55;12.70;;;2.80;;
20709;SDS011;10516;51.518;9.864;2023-08-17T09:19:24;5.30;;;2.70;;
20709;SDS011;10516;51.518;9.864;2023-08-17T09:21:49;7.18;;;2.83;;
20709;SDS011;10516;51.518;9.864;2023-08-17T09:24:15;8.35;;;2.28;;
20709;SDS011;10516;51.518;9.864;2023-08-17T09:26:40;3.28;;;2.33;;
20709;SDS011;10516;51.518;9.864;2023-08-17T09:29:18;7.00;;;2.90;;
20709;SDS011;10516;51.518;9.864;2023-08-17T09:31:45;2.70;;;2.45;;
20709;SDS011;10516;51.518;9.864;2023-08-17T09:34:11;6.05;;;2.90;;
20709;SDS011;10516;51.518;9.864;2023-08-17T09:36:39;7.25;;;2.35;;
20709;SDS011;10516;51.518;9.864;2023-08-17T09:39:05;4.82;;;2.45;;
20709;SDS011;10516;51.518;9.864;2023-08-17T09:41:30;12.93;;;2.42;;
20709;SDS011;10516;51.518;9.864;2023-08-17T09:44:02;8.35;;;3.83;;
20709;SDS011;10516;51.518;9.864;2023-08-17T09:46:29;3.00;;;2.70;;
20709;SDS011;10516;51.518;9.864;2023-08-17T09:48:54;16.52;;;3.35;;
20709;SDS011;10516;51.518;9.864;2023-08-17T09:51:20;3.97;;;2.60;;
20709;SDS011;10516;51.518;9.864;2023-08-17T09:53:51;10.23;;;3.03;;
20709;SDS011;10516;51.518;9.864;2023-08-17T09:56:18;2.92;;;2.72;;
20709;SDS011;10516;51.518;9.864;2023-08-17T09:58:46;5.85;;;2.67;;
20709;SDS011;10516;51.518;9.864;2023-08-17T10:01:12;8.63;;;2.92;;
20709;SDS011;10516;51.518;9.864;2023-08-17T10:03:39;6.47;;;2.78;;
20709;SDS011;10516;51.518;9.864;2023-08-17T10:06:11;3.20;;;2.40;;
20709;SDS011;10516;51.518;9.864;2023-08-17T10:08:47;2.90;;;2.65;;
20709;SDS011;10516;51.518;9.864;2023-08-17T10:11:17;8.25;;;3.17;;
20709;SDS011;10516;51.518;9.864;2023-08-17T10:16:44;3.90;;;2.42;;
20709;SDS011;10516;51.518;9.864;2023-08-17T10:19:18;6.85;;;2.65;;
20709;SDS011;10516;51.518;9.864;2023-08-17T10:21:46;9.38;;;3.00;;
20709;SDS011;10516;51.518;9.864;2023-08-17T10:24:15;8.77;;;2.50;;
20709;SDS011;10516;51.518;9.864;2023-08-17T10:26:43;5.70;;;2.63;;
20709;SDS011;10516;51.518;9.864;2023-08-17T10:29:09;3.63;;;2.42;;
20709;SDS011;10516;51.518;9.864;2023-08-17T10:31:35;8.10;;;2.67;;
20709;SDS011;10516;51.518;9.864;2023-08-17T10:34:02;2.50;;;2.30;;
20709;SDS011;10516;51.518;9.864;2023-08-17T10:36:32;7.75;;;3.17;;
20709;SDS011;10516;51.518;9.864;2023-08-17T10:39:17;2.30;;;2.20;;
20709;SDS011;10516;51.518;9.864;2023-08-17T10:41:51;3.17;;;2.20;;
20709;SDS011;10516;51.518;9.864;2023-08-17T10:44:17;4.85;;;2.55;;
20709;SDS011;10516;51.518;9.864;2023-08-17T10:49:51;13.77;;;3.40;;
20709;SDS011;10516;51.518;9.864;2023-08-17T10:54:52;5.05;;;2.20;;
20709;SDS011;10516;51.518;9.864;2023-08-17T11:00:33;3.53;;;2.00;;
20709;SDS011;10516;51.518;9.864;2023-08-17T11:05:33;2.45;;;1.90;;
20709;SDS011;10516;51.518;9.864;2023-08-17T11:08:28;2.88;;;2.05;;
20709;SDS011;10516;51.518;9.864;2023-08-17T11:10:57;1.90;;;1.80;;
20709;SDS011;10516;51.518;9.864;2023-08-17T11:13:33;2.63;;;2.08;;
20709;SDS011;10516;51.518;9.864;2023-08-17T11:16:00;3.88;;;1.98;;
20709;SDS011;10516;51.518;9.864;2023-08-17T11:18:27;7.78;;;3.05;;
20709;SDS011;10516;51.518;9.864;2023-08-17T11:20:53;10.75;;;2.65;;
20709;SDS011;10516;51.518;9.864;2023-08-17T11:23:19;6.28;;;2.35;;
20709;SDS011;10516;51.518;9.864;2023-08-17T11:25:45;3.78;;;2.22;;
20709;SDS011;10516;51.518;9.864;2023-08-17T11:28:11;2.80;;;2.00;;
20709;SDS011;10516;51.518;9.864;2023-08-17T11:30:39;9.60;;;2.65;;
20709;SDS011;10516;51.518;9.864;2023-08-17T11:33:05;7.80;;;2.92;;
20709;SDS011;10516;51.518;9.864;2023-08-17T11:35:31;5.93;;;1.50;;
20709;SDS011;10516;51.518;9.864;2023-08-17T11:37:57;5.45;;;1.95;;
20709;SDS011;10516;51.518;9.864;2023-08-17T11:40:23;7.15;;;2.15;;
20709;SDS011;10516;51.518;9.864;2023-08-17T11:42:50;2.70;;;1.60;;
20709;SDS011;10516;51.518;9.864;2023-08-17T11:45:15;2.97;;;1.80;;
20709;SDS011;10516;51.518;9.864;2023-08-17T11:47:41;5.03;;;2.35;;
20709;SDS011;10516;51.518;9.864;2023-08-17T11:50:09;7.68;;;2.50;;
20709;SDS011;10516;51.518;9.864;2023-08-17T11:52:36;9.88;;;2.25;;
20709;SDS011;10516;51.518;9.864;2023-08-17T11:55:03;3.63;;;1.60;;
20709;SDS011;10516;51.518;9.864;2023-08-17T11:57:32;4.63;;;1.67;;
20709;SDS011;10516;51.518;9.864;2023-08-17T11:59:59;3.60;;;2.55;;
20709;SDS011;10516;51.518;9.864;2023-08-17T12:02:26;3.15;;;1.55;;
20709;SDS011;10516;51.518;9.864;2023-08-17T12:04:52;3.40;;;1.70;;
20709;SDS011;10516;51.518;9.864;2023-08-17T12:07:20;3.38;;;2.03;;
20709;SDS011;10516;51.518;9.864;2023-08-17T12:09:47;2.15;;;1.80;;
20709;SDS011;10516;51.518;9.864;2023-08-17T12:12:16;9.00;;;2.85;;
20709;SDS011;10516;51.518;9.864;2023-08-17T12:14:43;3.65;;;1.60;;
20709;SDS011;10516;51.518;9.864;2023-08-17T12:17:15;1.50;;;1.40;;
20709;SDS011;10516;51.518;9.864;2023-08-17T12:19:44;1.52;;;1.42;;
20709;SDS011;10516;51.518;9.864;2023-08-17T12:22:13;1.88;;;1.77;;
20709;SDS011;10516;51.518;9.864;2023-08-17T12:24:39;10.95;;;2.80;;
20709;SDS011;10516;51.518;9.864;2023-08-17T12:27:05;6.93;;;2.28;;
20709;SDS011;10516;51.518;9.864;2023-08-17T12:29:31;10.00;;;2.25;;
20709;SDS011;10516;51.518;9.864;2023-08-17T12:31:57;2.15;;;1.80;;
20709;SDS011;10516;51.518;9.864;2023-08-17T12:34:29;1.98;;;1.75;;
20709;SDS011;10516;51.518;9.864;2023-08-17T12:36:54;2.25;;;2.05;;
20709;SDS011;10516;51.518;9.864;2023-08-17T12:39:20;1.77;;;1.67;;
20709;SDS011;10516;51.518;9.864;2023-08-17T12:41:45;7.25;;;2.10;;
20709;SDS011;10516;51.518;9.864;2023-08-17T12:44:11;9.95;;;1.90;;
20709;SDS011;10516;51.518;9.864;2023-08-17T12:46:41;4.30;;;1.90;;
20709;SDS011;10516;51.518;9.864;2023-08-17T12:49:07;7.05;;;1.90;;
20709;SDS011;10516;51.518;9.864;2023-08-17T12:51:33;11.65;;;2.53;;
20709;SDS011;10516;51.518;9.864;2023-08-17T12:53:58;3.90;;;1.67;;
20709;SDS011;10516;51.518;9.864;2023-08-17T12:56:23;7.28;;;2.60;;
20709;SDS011;10516;51.518;9.864;2023-08-17T12:58:49;8.80;;;2.35;;
20709;SDS011;10516;51.518;9.864;2023-08-17T13:01:14;6.78;;;2.17;;
20709;SDS011;10516;51.518;9.864;2023-08-17T13:03:40;7.45;;;2.35;;
20709;SDS011;10516;51.518;9.864;2023-08-17T13:06:05;11.38;;;2.50;;
20709;SDS011;10516;51.518;9.864;2023-08-17T13:08:30;5.97;;;2.88;;
20709;SDS011;10516;51.518;9.864;2023-08-17T13:10:56;8.38;;;2.88;;
20709;SDS011;10516;51.518;9.864;2023-08-17T13:13:21;8.32;;;2.15;;
20709;SDS011;10516;51.518;9.864;2023-08-17T13:15:47;3.17;;;1.98;;
20709;SDS011;10516;51.518;9.864;2023-08-17T13:18:12;1.42;;;1.33;;
20709;SDS011;10516;51.518;9.864;2023-08-17T13:20:38;5.78;;;2.00;;
20709;SDS011;10516;51.518;9.864;2023-08-17T13:23:05;6.63;;;2.90;;
20709;SDS011;10516;51.518;9.864;2023-08-17T13:25:30;5.38;;;2.13;;
20709;SDS011;10516;51.518;9.864;2023-08-17T13:27:56;7.82;;;2.28;;
20709;SDS011;10516;51.518;9.864;2023-08-17T13:30:21;1.90;;;1.52;;
20709;SDS011;10516;51.518;9.864;2023-08-17T13:32:47;11.00;;;2.30;;
20709;SDS011;10516;51.518;9.864;2023-08-17T13:35:13;6.32;;;1.90;;
20709;SDS011;10516;51.518;9.864;2023-08-17T13:37:39;7.22;;;3.05;;
20709;SDS011;10516;51.518;9.864;2023-08-17T13:40:06;6.68;;;2.20;;
20709;SDS011;10516;51.518;9.864;2023-08-17T13:42:32;6.88;;;2.33;;
20709;SDS011;10516;51.518;9.864;2023-08-17T13:44:57;5.28;;;2.30;;
20709;SDS011;10516;51.518;9.864;2023-08-17T13:47:23;4.90;;;1.77;;
20709;SDS011;10516;51.518;9.864;2023-08-17T13:49:48;6.40;;;1.70;;
20709;SDS011;10516;51.518;9.864;2023-08-17T13:52:14;10.27;;;2.70;;
20709;SDS011;10516;51.518;9.864;2023-08-17T13:54:39;6.93;;;2.15;;
20709;SDS011;10516;51.518;9.864;2023-08-17T13:57:05;8.88;;;2.60;;
20709;SDS011;10516;51.518;9.864;2023-08-17T13:59:30;2.92;;;1.70;;
20709;SDS011;10516;51.518;9.864;2023-08-17T14:01:56;1.73;;;1.55;;
20709;SDS011;10516;51.518;9.864;2023-08-17T14:04:21;8.45;;;2.63;;
20709;SDS011;10516;51.518;9.864;2023-08-17T14:06:47;1.63;;;1.42;;
20709;SDS011;10516;51.518;9.864;2023-08-17T14:09:13;10.85;;;2.63;;
20709;SDS011;10516;51.518;9.864;2023-08-17T14:11:38;2.92;;;2.05;;
20709;SDS011;10516;51.518;9.864;2023-08-17T14:14:04;6.90;;;2.13;;
20709;SDS011;10516;51.518;9.864;2023-08-17T14:16:30;3.63;;;1.60;;
20709;SDS011;10516;51.518;9.864;2023-08-17T14:18:55;7.10;;;1.80;;
20709;SDS011;10516;51.518;9.864;2023-08-17T14:21:20;2.95;;;1.77;;
20709;SDS011;10516;51.518;9.864;2023-08-17T14:23:46;4.07;;;2.03;;
20709;SDS011;10516;51.518;9.864;2023-08-17T14:26:11;9.25;;;2.40;;
20709;SDS011;10516;51.518;9.864;2023-08-17T14:28:37;5.35;;;2.03;;
20709;SDS011;10516;51.518;9.864;2023-08-17T14:31:02;2.75;;;1.80;;
20709;SDS011;10516;51.518;9.864;2023-08-17T14:33:27;2.15;;;1.95;;
20709;SDS011;10516;51.518;9.864;2023-08-17T14:35:53;16.52;;;3.78;;
20709;SDS011;10516;51.518;9.864;2023-08-17T14:38:18;3.50;;;1.80;;
20709;SDS011;10516;51.518;9.864;2023-08-17T14:40:44;2.00;;;1.90;;
20709;SDS011;10516;51.518;9.864;2023-08-17T14:43:11;7.53;;;2.25;;
20709;SDS011;10516;51.518;9.864;2023-08-17T14:45:38;10.55;;;2.38;;
20709;SDS011;10516;51.518;9.864;2023-08-17T14:48:07;18.35;;;2.72;;
20709;SDS011;10516;51.518;9.864;2023-08-17T14:50:33;2.38;;;1.92;;
20709;SDS011;10516;51.518;9.864;2023-08-17T14:52:59;1.70;;;1.50;;
20709;SDS011;10516;51.518;9.864;2023-08-17T14:55:30;10.77;;;3.05;;